Time;durP1;ratioP1;P1;durP2;ratioP2;P2;SDS_P1;SDS_P2;PMS_P1;PMS_P2;Temp;Humidity;BMP_temperature;BMP_pressure;BME280_temperature;BME280_humidity;BME280_pressure;Samples;Min_cycle;Max_cycle;Signal;HPM_P1;HPM_P2
2023/07/28 00:00:47;;;;;;;2.57;2.37;;;;;;;;;;5041896;28;20255;-84
2023/07/28 00:03:12;;;;;;;3.07;2.77;;;;;;;;;;5041364;28;20380;-84
2023/07/28 00:05:37;;;;;;;2.80;2.40;;;;;;;;;;5041247;28;20198;-84
2023/07/28 00:08:03;;;;;;;2.97;2.47;;;;;;;;;;5043896;28;20216;-84
2023/07/28 00:10:28;;;;;;;2.10;2.00;;;;;;;;;;5047219;28;20188;-84
2023/07/28 00:12:53;;;;;;;2.67;2.43;;;;;;;;;;5039393;28;20184;-84
2023/07/28 00:15:19;;;;;;;3.00;2.60;;;;;;;;;;5040749;28;20180;-84
2023/07/28 00:17:44;;;;;;;2.83;2.63;;;;;;;;;;5047758;28;20203;-85
2023/07/28 00:20:10;;;;;;;2.73;2.53;;;;;;;;;;5039910;28;20194;-84
2023/07/28 00:22:35;;;;;;;2.73;2.50;;;;;;;;;;5044730;28;20179;-85
2023/07/28 00:25:00;;;;;;;2.73;2.53;;;;;;;;;;5042645;28;20188;-84
2023/07/28 00:27:25;;;;;;;2.90;2.70;;;;;;;;;;5044278;28;20183;-84
2023/07/28 00:29:51;;;;;;;2.80;2.60;;;;;;;;;;5039454;28;20223;-84
2023/07/28 00:32:16;;;;;;;3.27;2.47;;;;;;;;;;5042558;28;20183;-84
2023/07/28 00:34:41;;;;;;;2.63;2.43;;;;;;;;;;5044386;28;20207;-84
2023/07/28 00:37:06;;;;;;;2.90;2.67;;;;;;;;;;5043197;28;20175;-84
2023/07/28 00:39:31;;;;;;;2.67;2.47;;;;;;;;;;5040744;28;20185;-84
2023/07/28 00:41:57;;;;;;;3.73;2.20;;;;;;;;;;5042438;28;20171;-84
2023/07/28 00:44:22;;;;;;;3.73;2.60;;;;;;;;;;5036698;28;20176;-84
2023/07/28 00:46:47;;;;;;;2.60;2.40;;;;;;;;;;5039443;28;20186;-84
2023/07/28 00:49:13;;;;;;;2.93;2.70;;;;;;;;;;5042922;28;20186;-85
2023/07/28 00:51:38;;;;;;;2.57;2.37;;;;;;;;;;5043026;28;20172;-84
2023/07/28 00:54:05;;;;;;;3.87;2.27;;;;;;;;;;5046276;28;20291;-84
2023/07/28 00:56:30;;;;;;;3.03;2.60;;;;;;;;;;5036543;28;20202;-85
2023/07/28 00:58:55;;;;;;;4.50;2.53;;;;;;;;;;5041280;28;20172;-84
2023/07/28 01:01:21;;;;;;;2.50;2.20;;;;;;;;;;5044208;28;20191;-84
2023/07/28 01:03:46;;;;;;;2.80;2.60;;;;;;;;;;5030749;28;20318;-84
2023/07/28 01:06:41;;;;;;;2.40;2.20;;;;;;;;;;5043194;28;20178;-85
2023/07/28 01:09:11;;;;;;;4.03;2.87;;;;;;;;;;5031688;28;20190;-84
2023/07/28 01:11:36;;;;;;;2.63;2.43;;;;;;;;;;5032023;28;20179;-84
2023/07/28 01:14:02;;;;;;;2.70;2.50;;;;;;;;;;5043547;28;20205;-84
2023/07/28 01:16:27;;;;;;;2.90;2.60;;;;;;;;;;5045645;28;20178;-84
2023/07/28 01:18:52;;;;;;;2.97;2.50;;;;;;;;;;5044981;28;20194;-84
2023/07/28 01:21:20;;;;;;;2.97;2.67;;;;;;;;;;5033698;28;20179;-85
2023/07/28 01:24:05;;;;;;;2.67;2.47;;;;;;;;;;5036856;28;20220;-84
2023/07/28 01:26:37;;;;;;;2.60;2.40;;;;;;;;;;5038816;28;20179;-85
2023/07/28 01:29:03;;;;;;;2.83;2.57;;;;;;;;;;5037014;28;20266;-85
2023/07/28 01:31:28;;;;;;;3.27;2.80;;;;;;;;;;5041076;28;20206;-85
2023/07/28 01:33:54;;;;;;;3.13;2.70;;;;;;;;;;5034980;28;20177;-85
2023/07/28 01:36:19;;;;;;;2.70;2.50;;;;;;;;;;5039770;28;20185;-84
2023/07/28 01:38:44;;;;;;;3.10;2.80;;;;;;;;;;5039777;28;20170;-84
2023/07/28 01:41:09;;;;;;;3.70;2.70;;;;;;;;;;5040050;28;20249;-84
2023/07/28 01:43:34;;;;;;;3.57;2.70;;;;;;;;;;5040735;28;20269;-84
2023/07/28 01:46:00;;;;;;;2.90;2.70;;;;;;;;;;5040009;28;20182;-85
2023/07/28 01:48:26;;;;;;;5.60;2.97;;;;;;;;;;5036122;28;20181;-84
2023/07/28 01:50:51;;;;;;;3.00;2.73;;;;;;;;;;5042574;28;20256;-85
2023/07/28 01:53:16;;;;;;;3.80;2.30;;;;;;;;;;5039200;28;20242;-85
2023/07/28 01:55:41;;;;;;;2.67;2.47;;;;;;;;;;5040432;28;20176;-84
2023/07/28 01:58:06;;;;;;;2.60;2.40;;;;;;;;;;5045428;28;20184;-85
2023/07/28 02:00:32;;;;;;;3.00;2.70;;;;;;;;;;5043920;28;20175;-85
2023/07/28 02:02:58;;;;;;;2.90;2.60;;;;;;;;;;5038308;28;20223;-85
2023/07/28 02:05:23;;;;;;;2.60;2.40;;;;;;;;;;5044420;28;20237;-84
2023/07/28 02:07:49;;;;;;;3.07;2.77;;;;;;;;;;5042143;28;20180;-85
2023/07/28 02:10:14;;;;;;;2.60;2.40;;;;;;;;;;5042422;28;20232;-84
2023/07/28 02:12:39;;;;;;;2.70;2.20;;;;;;;;;;5039856;28;20182;-85
2023/07/28 02:15:05;;;;;;;6.00;2.70;;;;;;;;;;5040207;28;20193;-85
2023/07/28 02:17:30;;;;;;;4.00;2.27;;;;;;;;;;5048288;28;20227;-85
2023/07/28 02:19:56;;;;;;;2.50;2.30;;;;;;;;;;5043937;28;20214;-85
2023/07/28 02:22:21;;;;;;;2.80;2.60;;;;;;;;;;5047392;28;20172;-85
2023/07/28 02:24:46;;;;;;;2.37;2.17;;;;;;;;;;5033094;28;20209;-84
2023/07/28 02:27:11;;;;;;;3.50;2.20;;;;;;;;;;5043802;28;20176;-85
2023/07/28 02:29:37;;;;;;;2.70;2.47;;;;;;;;;;5050708;28;20263;-85
2023/07/28 02:32:02;;;;;;;2.63;2.43;;;;;;;;;;5046538;28;20208;-84
2023/07/28 02:34:27;;;;;;;2.70;2.50;;;;;;;;;;5044154;28;20166;-85
2023/07/28 02:36:53;;;;;;;3.10;2.80;;;;;;;;;;5040304;28;20174;-85
2023/07/28 02:39:18;;;;;;;3.37;2.40;;;;;;;;;;5046443;28;20228;-84
2023/07/28 02:41:44;;;;;;;4.33;2.87;;;;;;;;;;5050216;28;20182;-84
2023/07/28 02:44:09;;;;;;;5.03;2.67;;;;;;;;;;5046226;28;20186;-84
2023/07/28 02:46:34;;;;;;;3.50;2.73;;;;;;;;;;5047728;28;20191;-85
2023/07/28 02:48:59;;;;;;;2.53;2.33;;;;;;;;;;5045313;28;20179;-85
2023/07/28 02:51:25;;;;;;;2.47;2.27;;;;;;;;;;5040146;28;20265;-85
2023/07/28 02:53:50;;;;;;;4.03;2.80;;;;;;;;;;5046426;28;20208;-84
2023/07/28 02:56:15;;;;;;;2.90;2.70;;;;;;;;;;5049604;28;20189;-85
2023/07/28 02:58:40;;;;;;;3.30;2.50;;;;;;;;;;5042935;28;20202;-85
2023/07/28 03:01:05;;;;;;;2.53;2.13;;;;;;;;;;5043750;28;20201;-85
2023/07/28 03:03:31;;;;;;;2.30;1.90;;;;;;;;;;5037125;28;20229;-84
2023/07/28 03:05:56;;;;;;;3.80;2.57;;;;;;;;;;5036820;28;20277;-84
2023/07/28 03:08:21;;;;;;;3.37;2.13;;;;;;;;;;5041505;28;20191;-86
2023/07/28 03:10:47;;;;;;;2.50;2.30;;;;;;;;;;5037920;28;20233;-85
2023/07/28 03:13:12;;;;;;;3.60;2.63;;;;;;;;;;5037266;28;20182;-85
2023/07/28 03:15:37;;;;;;;3.47;2.70;;;;;;;;;;5044166;28;20182;-85
2023/07/28 03:18:02;;;;;;;2.67;2.47;;;;;;;;;;5042558;28;20200;-85
2023/07/28 03:20:27;;;;;;;3.33;3.10;;;;;;;;;;5038376;28;20176;-85
2023/07/28 03:22:54;;;;;;;3.50;2.77;;;;;;;;;;5037150;28;20236;-85
2023/07/28 03:25:20;;;;;;;3.47;2.73;;;;;;;;;;5045091;28;20297;-85
2023/07/28 03:27:45;;;;;;;3.83;3.30;;;;;;;;;;5045521;28;20272;-85
2023/07/28 03:30:10;;;;;;;3.67;3.37;;;;;;;;;;5041537;28;20345;-85
2023/07/28 03:32:36;;;;;;;6.93;4.20;;;;;;;;;;5041283;28;20178;-85
2023/07/28 03:35:01;;;;;;;4.27;3.80;;;;;;;;;;5038751;28;20179;-85
2023/07/28 03:37:26;;;;;;;3.80;3.50;;;;;;;;;;5037278;28;20265;-85
2023/07/28 03:39:52;;;;;;;3.73;3.43;;;;;;;;;;5041562;28;20176;-85
2023/07/28 03:42:17;;;;;;;3.53;3.23;;;;;;;;;;5044506;28;20187;-84
2023/07/28 03:44:42;;;;;;;4.47;3.60;;;;;;;;;;5039650;28;20178;-84
2023/07/28 03:47:07;;;;;;;4.40;4.00;;;;;;;;;;5044456;28;20181;-84
2023/07/28 03:49:33;;;;;;;4.50;4.20;;;;;;;;;;5046062;28;20218;-84
2023/07/28 03:51:58;;;;;;;5.63;4.03;;;;;;;;;;5041996;28;20168;-84
2023/07/28 03:54:23;;;;;;;5.87;4.30;;;;;;;;;;5045975;28;20277;-85
2023/07/28 03:56:48;;;;;;;4.63;4.23;;;;;;;;;;5043398;28;20202;-82
2023/07/28 03:59:14;;;;;;;4.60;4.20;;;;;;;;;;5043161;28;20265;-84
2023/07/28 04:01:39;;;;;;;4.80;4.40;;;;;;;;;;5043714;28;20225;-84
2023/07/28 04:04:05;;;;;;;6.23;5.07;;;;;;;;;;5039553;28;20221;-84
2023/07/28 04:06:44;;;;;;;5.73;5.20;;;;;;;;;;5040047;28;20182;-84
2023/07/28 04:09:09;;;;;;;6.60;5.90;;;;;;;;;;5042085;28;20190;-84
2023/07/28 04:11:35;;;;;;;5.70;5.20;;;;;;;;;;5040589;28;20209;-85
2023/07/28 04:14:00;;;;;;;6.93;6.33;;;;;;;;;;5037748;28;20201;-84
2023/07/28 04:16:26;;;;;;;5.73;5.20;;;;;;;;;;5042948;28;20305;-85
2023/07/28 04:18:51;;;;;;;6.30;5.70;;;;;;;;;;5040821;28;20174;-86
2023/07/28 04:21:16;;;;;;;6.53;5.90;;;;;;;;;;5046587;28;20308;-86
2023/07/28 04:23:41;;;;;;;7.37;6.60;;;;;;;;;;5041779;28;20268;-86
2023/07/28 04:26:07;;;;;;;7.10;6.37;;;;;;;;;;5044663;28;20255;-86
2023/07/28 04:28:32;;;;;;;6.57;5.73;;;;;;;;;;5038537;28;20184;-86
2023/07/28 04:30:57;;;;;;;5.40;4.90;;;;;;;;;;5044891;28;20219;-88
2023/07/28 04:33:22;;;;;;;6.03;5.50;;;;;;;;;;5039272;28;20205;-87
2023/07/28 04:35:48;;;;;;;5.50;5.00;;;;;;;;;;5037231;28;20183;-87
2023/07/28 04:38:13;;;;;;;5.37;4.87;;;;;;;;;;5045655;28;20228;-88
2023/07/28 04:40:38;;;;;;;4.97;4.60;;;;;;;;;;5045940;28;20318;-88
2023/07/28 04:43:03;;;;;;;5.23;4.40;;;;;;;;;;5040662;28;20179;-88
2023/07/28 04:45:29;;;;;;;5.60;5.00;;;;;;;;;;5041998;28;20179;-87
2023/07/28 04:47:54;;;;;;;5.43;4.93;;;;;;;;;;5039864;28;20277;-87
2023/07/28 04:50:19;;;;;;;4.47;4.10;;;;;;;;;;5045385;28;20282;-87
2023/07/28 04:52:44;;;;;;;5.20;4.40;;;;;;;;;;5044267;28;20187;-87
2023/07/28 04:55:10;;;;;;;5.87;4.57;;;;;;;;;;5042053;28;20186;-88
2023/07/28 04:57:35;;;;;;;5.70;5.20;;;;;;;;;;5042654;28;20174;-88
2023/07/28 05:00:00;;;;;;;5.33;4.90;;;;;;;;;;5044806;28;20185;-88
2023/07/28 05:02:25;;;;;;;5.57;4.57;;;;;;;;;;5036864;28;20293;-88
2023/07/28 05:04:51;;;;;;;4.93;4.53;;;;;;;;;;5044431;28;20175;-87
2023/07/28 05:07:16;;;;;;;5.80;5.27;;;;;;;;;;5042830;28;20178;-88
2023/07/28 05:09:41;;;;;;;5.30;4.77;;;;;;;;;;5038415;28;20213;-87
2023/07/28 05:12:06;;;;;;;5.93;5.43;;;;;;;;;;5035699;28;20171;-88
2023/07/28 05:14:32;;;;;;;6.33;5.10;;;;;;;;;;5043209;28;20182;-88
2023/07/28 05:16:57;;;;;;;5.53;4.60;;;;;;;;;;5036310;28;20172;-88
2023/07/28 05:19:22;;;;;;;4.73;4.33;;;;;;;;;;5039984;28;20217;-88
2023/07/28 05:21:47;;;;;;;6.60;4.33;;;;;;;;;;5032848;28;20176;-84
2023/07/28 05:24:13;;;;;;;4.53;4.07;;;;;;;;;;5036392;28;20174;-87
2023/07/28 05:26:38;;;;;;;4.93;3.63;;;;;;;;;;5035850;28;20175;-88
2023/07/28 05:29:03;;;;;;;4.77;4.37;;;;;;;;;;5041943;28;20249;-88
2023/07/28 05:31:29;;;;;;;4.90;4.43;;;;;;;;;;5036995;28;20275;-88
2023/07/28 05:33:54;;;;;;;4.70;4.20;;;;;;;;;;5035979;28;20172;-87
2023/07/28 05:36:19;;;;;;;5.37;4.47;;;;;;;;;;5033825;28;20210;-88
2023/07/28 05:38:44;;;;;;;10.13;5.00;;;;;;;;;;5032155;28;20191;-87
2023/07/28 05:41:09;;;;;;;5.47;4.00;;;;;;;;;;5040083;28;20177;-88
2023/07/28 05:43:35;;;;;;;3.97;3.67;;;;;;;;;;5040077;28;20178;-87
2023/07/28 05:46:00;;;;;;;3.90;3.60;;;;;;;;;;5037750;28;20171;-86
2023/07/28 05:48:25;;;;;;;5.73;3.87;;;;;;;;;;5038899;28;20261;-86
2023/07/28 05:50:53;;;;;;;3.83;3.50;;;;;;;;;;5047110;28;20205;-83
2023/07/28 05:53:18;;;;;;;4.43;4.03;;;;;;;;;;5040036;28;20186;-86
2023/07/28 05:55:43;;;;;;;3.87;3.57;;;;;;;;;;5038622;28;20226;-86
2023/07/28 05:58:08;;;;;;;4.43;3.80;;;;;;;;;;5037497;28;20198;-86
2023/07/28 06:00:34;;;;;;;3.47;3.17;;;;;;;;;;5040321;28;20180;-87
2023/07/28 06:02:59;;;;;;;3.60;3.20;;;;;;;;;;5035107;28;20239;-87
2023/07/28 06:05:24;;;;;;;3.47;2.97;;;;;;;;;;5035034;28;20177;-87
2023/07/28 06:07:49;;;;;;;4.00;3.00;;;;;;;;;;5036261;28;20287;-86
2023/07/28 06:10:15;;;;;;;3.20;3.00;;;;;;;;;;5042007;28;20214;-85
2023/07/28 06:12:40;;;;;;;3.33;3.03;;;;;;;;;;5039133;28;20192;-86
2023/07/28 06:15:05;;;;;;;2.97;2.77;;;;;;;;;;5040069;28;20175;-86
2023/07/28 06:17:31;;;;;;;3.87;3.13;;;;;;;;;;5039083;28;20175;-85
2023/07/28 06:19:56;;;;;;;2.60;2.40;;;;;;;;;;5037582;28;20190;-86
2023/07/28 06:22:21;;;;;;;1.87;1.77;;;;;;;;;;5034833;28;20248;-87
2023/07/28 06:24:46;;;;;;;1.83;1.73;;;;;;;;;;5039537;28;20199;-87
2023/07/28 06:27:11;;;;;;;4.90;3.00;;;;;;;;;;5048733;28;20167;-87
2023/07/28 06:29:37;;;;;;;2.27;2.07;;;;;;;;;;5039426;28;20205;-87
2023/07/28 06:32:02;;;;;;;3.53;3.23;;;;;;;;;;5036664;28;20179;-87
2023/07/28 06:34:28;;;;;;;3.57;2.90;;;;;;;;;;5039178;28;20171;-88
2023/07/28 06:36:53;;;;;;;2.40;2.20;;;;;;;;;;5040557;28;20160;-87
2023/07/28 06:39:18;;;;;;;2.60;2.00;;;;;;;;;;5045648;28;20175;-87
2023/07/28 06:41:44;;;;;;;1.77;1.67;;;;;;;;;;5048743;28;20184;-87
2023/07/28 06:44:09;;;;;;;2.50;2.30;;;;;;;;;;5041215;28;20194;-87
2023/07/28 06:46:35;;;;;;;2.23;2.03;;;;;;;;;;5042608;28;20209;-88
2023/07/28 06:49:00;;;;;;;2.43;2.23;;;;;;;;;;5035819;28;20189;-87
2023/07/28 06:51:25;;;;;;;6.07;2.20;;;;;;;;;;5043731;28;20260;-87
2023/07/28 06:53:51;;;;;;;1.90;1.73;;;;;;;;;;5037102;28;20202;-88
2023/07/28 06:56:16;;;;;;;2.93;2.30;;;;;;;;;;5042391;28;20183;-86
2023/07/28 06:58:41;;;;;;;2.20;2.00;;;;;;;;;;5035658;28;20180;-86
2023/07/28 07:01:10;;;;;;;2.40;2.20;;;;;;;;;;5044232;28;20272;-86
2023/07/28 07:03:35;;;;;;;2.50;2.30;;;;;;;;;;5047334;28;20222;-86
2023/07/28 07:06:01;;;;;;;2.20;2.00;;;;;;;;;;5045938;28;20266;-86
2023/07/28 07:08:26;;;;;;;2.57;2.23;;;;;;;;;;5039233;28;20192;-87
2023/07/28 07:10:52;;;;;;;3.37;2.40;;;;;;;;;;5041009;28;20230;-87
2023/07/28 07:13:17;;;;;;;3.00;2.50;;;;;;;;;;5034880;28;20189;-86
2023/07/28 07:15:43;;;;;;;2.70;2.50;;;;;;;;;;5036829;28;20185;-86
2023/07/28 07:18:08;;;;;;;2.50;2.17;;;;;;;;;;5041883;28;20182;-86
2023/07/28 07:20:34;;;;;;;2.40;2.20;;;;;;;;;;5038554;28;20226;-86
2023/07/28 07:22:59;;;;;;;2.70;2.50;;;;;;;;;;5035792;28;20218;-86
2023/07/28 07:25:24;;;;;;;3.07;2.77;;;;;;;;;;5034627;28;20184;-86
2023/07/28 07:27:50;;;;;;;2.53;2.33;;;;;;;;;;5037786;28;20187;-85
2023/07/28 07:30:15;;;;;;;3.57;2.37;;;;;;;;;;5039668;28;20218;-86
2023/07/28 07:32:40;;;;;;;2.70;2.50;;;;;;;;;;5047268;28;20172;-86
2023/07/28 07:35:06;;;;;;;3.07;2.80;;;;;;;;;;5040681;28;20187;-86
2023/07/28 07:37:32;;;;;;;2.67;2.47;;;;;;;;;;5041020;28;20185;-87
2023/07/28 07:39:57;;;;;;;4.47;2.87;;;;;;;;;;5037026;28;20183;-86
2023/07/28 07:42:22;;;;;;;3.17;2.30;;;;;;;;;;5038907;28;20177;-85
2023/07/28 07:44:47;;;;;;;2.93;2.73;;;;;;;;;;5036082;28;20180;-86
2023/07/28 07:47:15;;;;;;;2.77;2.57;;;;;;;;;;5038812;28;20291;-85
2023/07/28 07:49:40;;;;;;;2.60;2.40;;;;;;;;;;5038274;28;20182;-85
2023/07/28 07:52:06;;;;;;;3.03;2.60;;;;;;;;;;5036256;28;20172;-86
2023/07/28 07:54:32;;;;;;;2.90;2.70;;;;;;;;;;5035357;28;20285;-87
2023/07/28 07:56:57;;;;;;;3.23;2.93;;;;;;;;;;5042020;28;20186;-85
2023/07/28 07:59:26;;;;;;;3.43;2.47;;;;;;;;;;5039825;28;20475;-87
2023/07/28 08:01:51;;;;;;;3.63;3.30;;;;;;;;;;5040392;28;20170;-86
2023/07/28 08:04:16;;;;;;;2.70;2.50;;;;;;;;;;5041531;28;20177;-86
2023/07/28 08:06:42;;;;;;;3.10;2.80;;;;;;;;;;5040872;28;20182;-86
2023/07/28 08:09:07;;;;;;;3.23;2.93;;;;;;;;;;5044027;28;20214;-86
2023/07/28 08:11:32;;;;;;;2.77;2.50;;;;;;;;;;5042151;28;20241;-86
2023/07/28 08:14:00;;;;;;;3.40;3.07;;;;;;;;;;5028026;28;20278;-86
2023/07/28 08:16:27;;;;;;;3.17;2.87;;;;;;;;;;5036437;28;20206;-86
2023/07/28 08:18:56;;;;;;;4.53;2.70;;;;;;;;;;5040179;28;20236;-86
2023/07/28 08:21:22;;;;;;;3.37;2.87;;;;;;;;;;5045572;28;20189;-85
2023/07/28 08:23:47;;;;;;;2.83;2.63;;;;;;;;;;5041528;28;20193;-86
2023/07/28 08:26:13;;;;;;;3.50;2.60;;;;;;;;;;5041423;28;20304;-86
2023/07/28 08:28:38;;;;;;;3.20;2.90;;;;;;;;;;5043971;28;20211;-86
2023/07/28 08:31:04;;;;;;;5.67;3.03;;;;;;;;;;5035656;28;20303;-87
2023/07/28 08:33:29;;;;;;;3.07;2.77;;;;;;;;;;5040684;28;20248;-86
2023/07/28 08:35:54;;;;;;;2.80;2.60;;;;;;;;;;5039691;28;20182;-85
2023/07/28 08:38:20;;;;;;;3.43;2.70;;;;;;;;;;5043261;28;20207;-86
2023/07/28 08:40:45;;;;;;;2.43;2.23;;;;;;;;;;5044828;28;20181;-87
2023/07/28 08:43:13;;;;;;;2.67;2.47;;;;;;;;;;5039739;28;20199;-85
2023/07/28 08:45:38;;;;;;;3.23;2.93;;;;;;;;;;5035244;28;20180;-85
2023/07/28 08:48:04;;;;;;;3.47;3.17;;;;;;;;;;5043258;28;20228;-87
2023/07/28 08:50:29;;;;;;;2.80;2.60;;;;;;;;;;5037812;28;20230;-87
2023/07/28 08:52:56;;;;;;;2.93;2.73;;;;;;;;;;5036915;28;20247;-85
2023/07/28 08:55:21;;;;;;;2.60;2.40;;;;;;;;;;5039931;28;20186;-86
2023/07/28 08:57:49;;;;;;;3.47;2.93;;;;;;;;;;5043280;28;20186;-85
2023/07/28 09:00:15;;;;;;;3.90;2.70;;;;;;;;;;5034069;28;20188;-86
2023/07/28 09:02:41;;;;;;;3.07;2.53;;;;;;;;;;5044403;28;20229;-86
2023/07/28 09:05:06;;;;;;;2.90;2.60;;;;;;;;;;5036424;28;20190;-80
2023/07/28 09:07:36;;;;;;;3.23;2.47;;;;;;;;;;5035215;28;20193;-85
2023/07/28 09:10:02;;;;;;;2.20;2.00;;;;;;;;;;5039557;28;20221;-85
2023/07/28 09:12:30;;;;;;;6.33;2.73;;;;;;;;;;5043566;28;20188;-85
2023/07/28 09:14:56;;;;;;;5.20;2.10;;;;;;;;;;5042160;28;20180;-86
2023/07/28 09:17:21;;;;;;;2.47;2.10;;;;;;;;;;5048559;28;20186;-85
2023/07/28 09:19:53;;;;;;;2.00;1.90;;;;;;;;;;5039466;28;20187;-85
2023/07/28 09:22:20;;;;;;;1.90;1.80;;;;;;;;;;5040984;28;20215;-85
2023/07/28 09:24:46;;;;;;;3.70;1.93;;;;;;;;;;5038925;28;20187;-85
2023/07/28 09:27:19;;;;;;;3.67;1.73;;;;;;;;;;5038834;28;20263;-85
2023/07/28 09:29:47;;;;;;;1.90;1.80;;;;;;;;;;5037280;28;20182;-85
2023/07/28 09:32:13;;;;;;;1.60;1.50;;;;;;;;;;5045562;28;20172;-86
2023/07/28 09:34:38;;;;;;;1.43;1.33;;;;;;;;;;5039989;28;20194;-86
2023/07/28 09:37:05;;;;;;;1.60;1.30;;;;;;;;;;5041271;28;20202;-86
2023/07/28 09:39:31;;;;;;;1.50;1.40;;;;;;;;;;5041103;28;20227;-86
2023/07/28 09:41:59;;;;;;;1.60;1.50;;;;;;;;;;5044513;28;20184;-85
2023/07/28 09:44:28;;;;;;;1.40;1.30;;;;;;;;;;5043877;28;20167;-85
2023/07/28 09:46:57;;;;;;;4.03;1.93;;;;;;;;;;5047057;28;20182;-86
2023/07/28 09:49:33;;;;;;;3.23;1.70;;;;;;;;;;5040225;28;20184;-86
2023/07/28 09:52:03;;;;;;;1.37;1.23;;;;;;;;;;5037714;28;20187;-86
2023/07/28 09:54:29;;;;;;;1.83;1.73;;;;;;;;;;5041740;28;20200;-86
2023/07/28 09:56:58;;;;;;;1.73;1.63;;;;;;;;;;5043428;28;20182;-86
2023/07/28 09:59:29;;;;;;;4.07;1.90;;;;;;;;;;5039910;28;20215;-86
2023/07/28 10:01:54;;;;;;;2.40;1.70;;;;;;;;;;5037272;28;20265;-85
2023/07/28 10:04:20;;;;;;;2.00;1.50;;;;;;;;;;5035389;28;20199;-85
2023/07/28 10:06:47;;;;;;;2.00;1.70;;;;;;;;;;5038534;28;20183;-85
2023/07/28 10:09:16;;;;;;;2.90;1.60;;;;;;;;;;5038275;28;20184;-85
2023/07/28 10:11:41;;;;;;;1.90;1.73;;;;;;;;;;5035842;28;20205;-85
2023/07/28 10:14:07;;;;;;;2.60;1.63;;;;;;;;;;5043515;28;20247;-85
2023/07/28 10:16:39;;;;;;;24.80;4.10;;;;;;;;;;5045069;28;20185;-86
2023/07/28 10:19:05;;;;;;;1.80;1.70;;;;;;;;;;5043189;28;20179;-86
2023/07/28 10:21:39;;;;;;;2.07;1.90;;;;;;;;;;5040534;28;20187;-85
2023/07/28 10:24:04;;;;;;;2.30;2.10;;;;;;;;;;5044023;28;20246;-80
2023/07/28 10:26:37;;;;;;;2.73;1.80;;;;;;;;;;5040052;28;20176;-85
2023/07/28 10:29:09;;;;;;;1.93;1.83;;;;;;;;;;5050075;28;20185;-86
2023/07/28 10:31:34;;;;;;;2.17;2.00;;;;;;;;;;5042677;28;20204;-85
2023/07/28 10:34:00;;;;;;;3.33;2.03;;;;;;;;;;5041752;28;20191;-86
2023/07/28 10:36:25;;;;;;;2.20;2.00;;;;;;;;;;5038475;28;20176;-85
2023/07/28 10:39:03;;;;;;;2.30;2.10;;;;;;;;;;5040108;28;20181;-85
2023/07/28 10:41:28;;;;;;;10.10;2.87;;;;;;;;;;5039535;28;20278;-86
2023/07/28 10:43:54;;;;;;;2.17;1.97;;;;;;;;;;5044647;28;20263;-83
2023/07/28 10:46:21;;;;;;;2.20;1.70;;;;;;;;;;5050592;28;20179;-86
2023/07/28 10:48:47;;;;;;;2.60;2.30;;;;;;;;;;5045910;28;20183;-86
2023/07/28 10:51:19;;;;;;;3.90;3.60;;;;;;;;;;5047289;28;20282;-86
2023/07/28 10:53:44;;;;;;;2.43;2.10;;;;;;;;;;5041469;28;20227;-86
2023/07/28 10:56:10;;;;;;;3.20;2.50;;;;;;;;;;5043134;28;20219;-86
2023/07/28 10:58:36;;;;;;;3.07;2.30;;;;;;;;;;5038891;28;20232;-87
2023/07/28 11:01:01;;;;;;;2.97;2.17;;;;;;;;;;5042896;28;20179;-86
2023/07/28 11:03:28;;;;;;;2.80;2.20;;;;;;;;;;5036205;28;20315;-86
2023/07/28 11:05:54;;;;;;;2.30;2.10;;;;;;;;;;5035114;28;20205;-86
2023/07/28 11:08:19;;;;;;;2.40;2.20;;;;;;;;;;5052417;28;20206;-86
2023/07/28 11:10:45;;;;;;;2.90;2.10;;;;;;;;;;5036523;28;20259;-86
2023/07/28 11:13:10;;;;;;;2.67;2.47;;;;;;;;;;5038949;28;20210;-86
2023/07/28 11:15:35;;;;;;;3.67;2.40;;;;;;;;;;5047415;28;20249;-86
2023/07/28 11:18:02;;;;;;;4.33;2.53;;;;;;;;;;5044414;28;20175;-86
2023/07/28 11:20:28;;;;;;;3.00;2.43;;;;;;;;;;5036019;28;20279;-85
2023/07/28 11:23:03;;;;;;;3.13;2.60;;;;;;;;;;5038082;28;20275;-84
2023/07/28 11:25:29;;;;;;;3.07;2.60;;;;;;;;;;5036682;28;20178;-83
2023/07/28 11:27:57;;;;;;;3.57;3.10;;;;;;;;;;5034684;28;20240;-87
2023/07/28 11:30:23;;;;;;;2.93;2.70;;;;;;;;;;5037178;28;20238;-87
2023/07/28 11:32:52;;;;;;;3.07;2.57;;;;;;;;;;5035436;28;20201;-88
2023/07/28 11:35:19;;;;;;;3.37;3.03;;;;;;;;;;5046738;28;20175;-89
2023/07/28 11:37:46;;;;;;;3.20;2.90;;;;;;;;;;5045998;28;20182;-90
2023/07/28 11:40:11;;;;;;;3.23;3.03;;;;;;;;;;5037612;28;20222;-90
2023/07/28 11:42:55;;;;;;;3.30;3.00;;;;;;;;;;5042160;28;20221;-90
2023/07/28 11:45:22;;;;;;;2.80;2.47;;;;;;;;;;5034483;28;20192;-89
2023/07/28 11:48:04;;;;;;;3.47;2.80;;;;;;;;;;5038001;28;20213;-89
2023/07/28 11:50:33;;;;;;;3.10;2.47;;;;;;;;;;5041696;28;20237;-88
2023/07/28 11:52:58;;;;;;;2.77;2.57;;;;;;;;;;5041431;28;20283;-88
2023/07/28 11:55:24;;;;;;;3.43;2.83;;;;;;;;;;5035926;28;20193;-89
2023/07/28 11:57:49;;;;;;;2.83;2.63;;;;;;;;;;5042045;28;20171;-88
2023/07/28 12:00:16;;;;;;;3.03;2.83;;;;;;;;;;5046266;28;20184;-88
2023/07/28 12:02:42;;;;;;;3.70;2.63;;;;;;;;;;5041030;28;20230;-84
2023/07/28 12:05:16;;;;;;;10.07;3.33;;;;;;;;;;5046619;28;20177;-84
2023/07/28 12:07:46;;;;;;;3.13;2.47;;;;;;;;;;5037760;28;20273;-84
2023/07/28 12:10:13;;;;;;;2.87;2.53;;;;;;;;;;5040797;28;20275;-85
2023/07/28 12:12:43;;;;;;;2.47;2.27;;;;;;;;;;5044392;28;20169;-87
2023/07/28 12:15:22;;;;;;;2.93;2.73;;;;;;;;;;5036666;28;20175;-87
2023/07/28 12:18:19;;;;;;;2.73;2.53;;;;;;;;;;5038584;28;20272;-88
2023/07/28 12:20:46;;;;;;;2.60;2.40;;;;;;;;;;5020956;28;20224;-88
2023/07/28 12:23:12;;;;;;;2.60;2.40;;;;;;;;;;5046962;28;20184;-89
2023/07/28 12:25:37;;;;;;;2.57;2.37;;;;;;;;;;5040201;28;20173;-89
2023/07/28 12:28:03;;;;;;;4.47;2.30;;;;;;;;;;5047853;28;20184;-89
2023/07/28 12:30:28;;;;;;;3.30;2.93;;;;;;;;;;5033773;28;20205;-90
2023/07/28 12:32:54;;;;;;;2.97;2.77;;;;;;;;;;5041077;28;20190;-88
2023/07/28 12:35:23;;;;;;;3.00;2.70;;;;;;;;;;5041743;28;20179;-89
2023/07/28 12:37:48;;;;;;;2.70;2.50;;;;;;;;;;5044312;28;20176;-89
2023/07/28 12:40:13;;;;;;;3.67;2.63;;;;;;;;;;5043179;28;20200;-89
2023/07/28 12:42:39;;;;;;;2.77;2.53;;;;;;;;;;5043724;28;20185;-89
2023/07/28 12:45:06;;;;;;;2.67;2.47;;;;;;;;;;5046144;28;20292;-89
2023/07/28 12:47:31;;;;;;;2.70;2.50;;;;;;;;;;5042043;28;20176;-89
2023/07/28 12:49:56;;;;;;;3.13;2.80;;;;;;;;;;5033292;28;20197;-86
2023/07/28 12:52:22;;;;;;;2.60;2.40;;;;;;;;;;5042670;28;20184;-88
2023/07/28 12:54:47;;;;;;;2.80;2.17;;;;;;;;;;5040649;28;20167;-88
2023/07/28 12:57:13;;;;;;;2.90;2.70;;;;;;;;;;5036543;28;20201;-88
2023/07/28 12:59:38;;;;;;;3.67;2.50;;;;;;;;;;5042974;28;20180;-88
2023/07/28 13:02:03;;;;;;;5.17;3.20;;;;;;;;;;5040637;28;20163;-88
2023/07/28 13:04:29;;;;;;;4.53;3.23;;;;;;;;;;5040229;28;20220;-87
2023/07/28 13:06:54;;;;;;;3.07;2.87;;;;;;;;;;5041249;28;20201;-88
2023/07/28 13:09:19;;;;;;;3.30;3.00;;;;;;;;;;5047202;28;20191;-88
2023/07/28 13:11:45;;;;;;;3.13;2.57;;;;;;;;;;5041479;28;20205;-89
2023/07/28 13:14:10;;;;;;;3.10;2.80;;;;;;;;;;5040456;28;20182;-88
2023/07/28 13:16:37;;;;;;;5.70;2.93;;;;;;;;;;5042462;28;20180;-88
2023/07/28 13:19:03;;;;;;;3.23;2.93;;;;;;;;;;5044331;28;20223;-88
2023/07/28 13:21:28;;;;;;;4.33;3.13;;;;;;;;;;5038612;28;20207;-84
2023/07/28 13:23:53;;;;;;;4.07;2.77;;;;;;;;;;5034181;28;20201;-84
2023/07/28 13:26:18;;;;;;;3.03;2.53;;;;;;;;;;5037971;28;20188;-83
2023/07/28 13:28:46;;;;;;;3.00;2.70;;;;;;;;;;5044654;28;20277;-84
2023/07/28 13:31:12;;;;;;;3.20;2.97;;;;;;;;;;5043504;28;20217;-84
2023/07/28 13:33:37;;;;;;;4.07;3.57;;;;;;;;;;5042362;28;20176;-84
2023/07/28 13:36:06;;;;;;;4.17;3.40;;;;;;;;;;5041908;28;20181;-84
2023/07/28 13:38:32;;;;;;;3.40;3.10;;;;;;;;;;5043390;28;20181;-84
2023/07/28 13:40:57;;;;;;;3.17;2.97;;;;;;;;;;5040218;28;20183;-84
2023/07/28 13:43:22;;;;;;;3.40;3.10;;;;;;;;;;5034799;28;20210;-84
2023/07/28 13:45:47;;;;;;;4.13;3.57;;;;;;;;;;5044099;28;20203;-85
2023/07/28 13:48:12;;;;;;;4.20;3.80;;;;;;;;;;5039336;28;20181;-84
2023/07/28 13:50:38;;;;;;;3.33;2.60;;;;;;;;;;5036732;28;20204;-85
2023/07/28 13:53:03;;;;;;;3.00;2.80;;;;;;;;;;5031967;28;20202;-85
2023/07/28 13:55:28;;;;;;;3.73;3.43;;;;;;;;;;5029679;28;20180;-85
2023/07/28 13:57:54;;;;;;;3.60;3.30;;;;;;;;;;5040511;28;20182;-85
2023/07/28 14:00:19;;;;;;;4.37;3.20;;;;;;;;;;5042581;28;20242;-86
2023/07/28 14:02:44;;;;;;;3.53;3.23;;;;;;;;;;5028637;28;20229;-86
2023/07/28 14:05:09;;;;;;;3.47;3.17;;;;;;;;;;5041563;28;20178;-85
2023/07/28 14:07:35;;;;;;;5.97;3.07;;;;;;;;;;5040505;28;20205;-85
2023/07/28 14:10:00;;;;;;;3.43;3.13;;;;;;;;;;5038615;28;20203;-85
2023/07/28 14:12:25;;;;;;;3.67;3.37;;;;;;;;;;5036987;28;20236;-85
2023/07/28 14:14:51;;;;;;;3.80;3.00;;;;;;;;;;5038812;28;20181;-86
2023/07/28 14:17:16;;;;;;;3.30;3.00;;;;;;;;;;5038839;28;20188;-86
2023/07/28 14:19:41;;;;;;;3.23;2.93;;;;;;;;;;5041972;28;20204;-86
2023/07/28 14:22:06;;;;;;;2.90;2.60;;;;;;;;;;5032787;28;20321;-86
2023/07/28 14:24:32;;;;;;;3.33;3.00;;;;;;;;;;5034518;28;20171;-86
2023/07/28 14:26:57;;;;;;;3.07;2.77;;;;;;;;;;5036677;28;20184;-86
2023/07/28 14:29:22;;;;;;;2.93;2.73;;;;;;;;;;5040295;28;20184;-86
2023/07/28 14:31:48;;;;;;;2.70;2.50;;;;;;;;;;5037641;28;20197;-85
2023/07/28 14:34:13;;;;;;;2.70;2.50;;;;;;;;;;5032305;28;20190;-86
2023/07/28 14:36:38;;;;;;;3.23;3.00;;;;;;;;;;5040527;28;20182;-86